sensor_id;sensor_type;location;lat;lon;timestamp;pressure;altitude;pressure_sealevel;temperature;humidity
59106;BME280;44891;50.204;8.132;2023-06-14T00:01:55;97976.72;;;14.01;61.79
59106;BME280;44891;50.204;8.132;2023-06-14T00:05:57;97974.63;;;13.83;62.54
59106;BME280;44891;50.204;8.132;2023-06-14T00:10:00;97971.72;;;13.74;63.20
59106;BME280;44891;50.204;8.132;2023-06-14T00:14:02;97975.66;;;13.67;63.65
59106;BME280;44891;50.204;8.132;2023-06-14T00:18:04;97971.44;;;13.66;63.50
59106;BME280;44891;50.204;8.132;2023-06-14T00:22:06;97966.16;;;13.71;63.23
59106;BME280;44891;50.204;8.132;2023-06-14T00:26:09;97978.06;;;13.68;63.32
59106;BME280;44891;50.204;8.132;2023-06-14T00:30:13;97977.78;;;13.70;63.36
59106;BME280;44891;50.204;8.132;2023-06-14T00:34:15;97980.94;;;13.77;63.09
59106;BME280;44891;50.204;8.132;2023-06-14T00:38:17;97981.19;;;13.65;62.99
59106;BME280;44891;50.204;8.132;2023-06-14T00:42:26;97980.66;;;13.38;63.88
59106;BME280;44891;50.204;8.132;2023-06-14T00:46:28;97986.19;;;13.46;63.65
59106;BME280;44891;50.204;8.132;2023-06-14T00:50:30;97983.03;;;13.34;64.26
59106;BME280;44891;50.204;8.132;2023-06-14T00:54:33;97986.22;;;13.41;64.00
59106;BME280;44891;50.204;8.132;2023-06-14T00:58:36;97987.91;;;12.95;65.62
59106;BME280;44891;50.204;8.132;2023-06-14T01:02:38;97975.03;;;13.14;65.42
59106;BME280;44891;50.204;8.132;2023-06-14T01:06:45;97982.94;;;13.14;64.48
59106;BME280;44891;50.204;8.132;2023-06-14T01:10:53;97991.28;;;12.85;64.97
59106;BME280;44891;50.204;8.132;2023-06-14T01:14:59;97987.66;;;12.96;64.60
59106;BME280;44891;50.204;8.132;2023-06-14T01:19:02;97984.31;;;13.21;63.79
59106;BME280;44891;50.204;8.132;2023-06-14T01:23:07;97990.03;;;12.98;64.73
59106;BME280;44891;50.204;8.132;2023-06-14T01:27:09;97990.00;;;12.88;64.92
59106;BME280;44891;50.204;8.132;2023-06-14T01:31:12;97989.13;;;12.72;65.59
59106;BME280;44891;50.204;8.132;2023-06-14T01:35:17;97981.00;;;12.84;65.80
59106;BME280;44891;50.204;8.132;2023-06-14T01:39:20;97991.88;;;12.97;64.97
59106;BME280;44891;50.204;8.132;2023-06-14T01:43:23;97987.59;;;12.86;65.30
59106;BME280;44891;50.204;8.132;2023-06-14T01:47:25;97997.91;;;12.93;65.00
59106;BME280;44891;50.204;8.132;2023-06-14T01:51:28;98000.19;;;12.74;65.55
59106;BME280;44891;50.204;8.132;2023-06-14T01:55:31;97993.34;;;12.25;67.44
59106;BME280;44891;50.204;8.132;2023-06-14T01:59:38;97994.03;;;12.48;66.48
59106;BME280;44891;50.204;8.132;2023-06-14T02:03:40;97994.34;;;12.57;65.88
59106;BME280;44891;50.204;8.132;2023-06-14T02:07:42;97996.91;;;12.04;67.84
59106;BME280;44891;50.204;8.132;2023-06-14T02:11:46;97990.69;;;11.83;68.95
59106;BME280;44891;50.204;8.132;2023-06-14T02:15:47;97984.25;;;12.01;68.75
59106;BME280;44891;50.204;8.132;2023-06-14T02:19:51;97988.63;;;12.22;67.49
59106;BME280;44891;50.204;8.132;2023-06-14T02:23:53;97993.00;;;12.12;67.68
59106;BME280;44891;50.204;8.132;2023-06-14T02:27:56;97996.97;;;12.14;67.56
59106;BME280;44891;50.204;8.132;2023-06-14T02:31:58;97994.38;;;11.82;68.85
59106;BME280;44891;50.204;8.132;2023-06-14T02:36:00;98005.72;;;11.61;70.25
59106;BME280;44891;50.204;8.132;2023-06-14T02:40:03;97996.50;;;11.85;69.06
59106;BME280;44891;50.204;8.132;2023-06-14T02:44:07;98004.75;;;11.99;68.22
59106;BME280;44891;50.204;8.132;2023-06-14T02:48:09;98005.59;;;12.05;67.83
59106;BME280;44891;50.204;8.132;2023-06-14T02:52:11;98001.59;;;11.97;67.70
59106;BME280;44891;50.204;8.132;2023-06-14T02:56:13;98000.84;;;11.75;68.88
59106;BME280;44891;50.204;8.132;2023-06-14T03:00:19;97999.19;;;11.90;68.32
59106;BME280;44891;50.204;8.132;2023-06-14T03:04:22;98012.03;;;11.87;68.44
59106;BME280;44891;50.204;8.132;2023-06-14T03:08:26;98007.16;;;11.74;68.76
59106;BME280;44891;50.204;8.132;2023-06-14T03:12:30;98014.78;;;11.75;68.64
59106;BME280;44891;50.204;8.132;2023-06-14T03:16:34;98016.03;;;11.67;69.07
59106;BME280;44891;50.204;8.132;2023-06-14T03:20:38;98019.38;;;11.58;69.48
59106;BME280;44891;50.204;8.132;2023-06-14T03:24:41;98027.53;;;11.56;69.55
59106;BME280;44891;50.204;8.132;2023-06-14T03:28:48;98030.19;;;11.61;69.37
59106;BME280;44891;50.204;8.132;2023-06-14T03:32:52;98031.34;;;11.70;68.94
59106;BME280;44891;50.204;8.132;2023-06-14T03:36:56;98043.59;;;11.60;69.14
59106;BME280;44891;50.204;8.132;2023-06-14T03:40:59;98041.41;;;11.52;69.28
59106;BME280;44891;50.204;8.132;2023-06-14T03:45:00;98041.50;;;11.62;69.49
59106;BME280;44891;50.204;8.132;2023-06-14T03:49:04;98049.69;;;11.65;69.18
59106;BME280;44891;50.204;8.132;2023-06-14T03:53:06;98051.78;;;11.63;69.33
59106;BME280;44891;50.204;8.132;2023-06-14T03:57:08;98057.59;;;11.65;69.28
59106;BME280;44891;50.204;8.132;2023-06-14T04:01:11;98067.31;;;11.65;69.26
59106;BME280;44891;50.204;8.132;2023-06-14T04:05:15;98067.38;;;11.70;69.21
59106;BME280;44891;50.204;8.132;2023-06-14T04:09:23;98066.38;;;11.76;69.02
59106;BME280;44891;50.204;8.132;2023-06-14T04:13:25;98075.19;;;11.87;68.73
59106;BME280;44891;50.204;8.132;2023-06-14T04:17:27;98076.28;;;11.91;68.48
59106;BME280;44891;50.204;8.132;2023-06-14T04:21:30;98081.34;;;11.97;68.60
59106;BME280;44891;50.204;8.132;2023-06-14T04:25:37;98081.94;;;12.05;68.48
59106;BME280;44891;50.204;8.132;2023-06-14T04:29:39;98084.13;;;12.18;68.67
59106;BME280;44891;50.204;8.132;2023-06-14T04:33:46;98086.78;;;12.18;68.57
59106;BME280;44891;50.204;8.132;2023-06-14T04:37:53;98087.34;;;12.25;68.33
59106;BME280;44891;50.204;8.132;2023-06-14T04:41:56;98087.81;;;12.17;68.58
59106;BME280;44891;50.204;8.132;2023-06-14T04:46:01;98092.53;;;12.52;68.25
59106;BME280;44891;50.204;8.132;2023-06-14T04:50:05;98091.28;;;13.02;66.51
59106;BME280;44891;50.204;8.132;2023-06-14T04:54:08;98090.00;;;13.20;66.13
59106;BME280;44891;50.204;8.132;2023-06-14T04:58:15;98096.66;;;12.80;67.51
59106;BME280;44891;50.204;8.132;2023-06-14T05:02:17;98102.66;;;13.18;66.33
59106;BME280;44891;50.204;8.132;2023-06-14T05:06:19;98105.69;;;13.42;66.16
59106;BME280;44891;50.204;8.132;2023-06-14T05:10:24;98107.59;;;13.56;66.36
59106;BME280;44891;50.204;8.132;2023-06-14T05:14:25;98106.09;;;14.01;65.06
59106;BME280;44891;50.204;8.132;2023-06-14T05:18:28;98108.72;;;14.11;64.37
59106;BME280;44891;50.204;8.132;2023-06-14T05:22:29;98113.75;;;14.38;63.79
59106;BME280;44891;50.204;8.132;2023-06-14T05:26:33;98113.50;;;14.71;63.41
59106;BME280;44891;50.204;8.132;2023-06-14T05:30:35;98113.78;;;14.74;62.71
59106;BME280;44891;50.204;8.132;2023-06-14T05:34:37;98110.56;;;14.77;63.23
59106;BME280;44891;50.204;8.132;2023-06-14T05:38:39;98111.88;;;14.85;62.86
59106;BME280;44891;50.204;8.132;2023-06-14T05:42:42;98119.25;;;14.98;62.62
59106;BME280;44891;50.204;8.132;2023-06-14T05:46:44;98118.44;;;15.13;63.63
59106;BME280;44891;50.204;8.132;2023-06-14T05:50:46;98120.22;;;15.28;63.95
59106;BME280;44891;50.204;8.132;2023-06-14T05:54:48;98117.69;;;15.67;60.90
59106;BME280;44891;50.204;8.132;2023-06-14T05:58:51;98121.53;;;15.90;63.52
59106;BME280;44891;50.204;8.132;2023-06-14T06:02:53;98126.94;;;16.14;63.01
59106;BME280;44891;50.204;8.132;2023-06-14T06:06:57;98124.47;;;16.22;61.43
59106;BME280;44891;50.204;8.132;2023-06-14T06:10:59;98126.47;;;16.41;60.33
59106;BME280;44891;50.204;8.132;2023-06-14T06:15:04;98131.84;;;16.65;58.58
59106;BME280;44891;50.204;8.132;2023-06-14T06:19:06;98137.66;;;16.96;55.70
59106;BME280;44891;50.204;8.132;2023-06-14T06:23:07;98125.59;;;17.32;54.62
59106;BME280;44891;50.204;8.132;2023-06-14T06:27:10;98137.16;;;17.42;53.91
59106;BME280;44891;50.204;8.132;2023-06-14T06:31:14;98134.13;;;17.72;53.07
59106;BME280;44891;50.204;8.132;2023-06-14T06:35:16;98137.06;;;17.71;52.35
59106;BME280;44891;50.204;8.132;2023-06-14T06:39:18;98140.91;;;17.83;52.95
59106;BME280;44891;50.204;8.132;2023-06-14T06:43:20;98146.91;;;18.08;52.43
59106;BME280;44891;50.204;8.132;2023-06-14T06:47:24;98141.47;;;18.18;50.80
59106;BME280;44891;50.204;8.132;2023-06-14T06:51:26;98141.47;;;18.18;51.18
59106;BME280;44891;50.204;8.132;2023-06-14T06:55:28;98145.56;;;18.10;50.87
59106;BME280;44891;50.204;8.132;2023-06-14T06:59:30;98148.63;;;18.36;50.31
59106;BME280;44891;50.204;8.132;2023-06-14T07:03:33;98149.94;;;18.53;49.39
59106;BME280;44891;50.204;8.132;2023-06-14T07:07:36;98150.34;;;18.60;50.02
59106;BME280;44891;50.204;8.132;2023-06-14T07:11:38;98153.47;;;18.67;48.21
59106;BME280;44891;50.204;8.132;2023-06-14T07:15:40;98156.25;;;18.76;48.61
59106;BME280;44891;50.204;8.132;2023-06-14T07:19:43;98158.66;;;19.05;48.48
59106;BME280;44891;50.204;8.132;2023-06-14T07:23:46;98161.03;;;19.06;49.07
59106;BME280;44891;50.204;8.132;2023-06-14T07:27:48;98154.44;;;19.31;47.12
59106;BME280;44891;50.204;8.132;2023-06-14T07:31:50;98158.97;;;19.44;46.41
59106;BME280;44891;50.204;8.132;2023-06-14T07:35:53;98161.16;;;19.42;46.40
59106;BME280;44891;50.204;8.132;2023-06-14T07:39:55;98157.47;;;19.52;46.32
59106;BME280;44891;50.204;8.132;2023-06-14T07:43:57;98162.81;;;19.66;47.11
59106;BME280;44891;50.204;8.132;2023-06-14T07:47:59;98164.53;;;19.62;47.20
59106;BME280;44891;50.204;8.132;2023-06-14T07:52:02;98166.56;;;19.65;47.95
59106;BME280;44891;50.204;8.132;2023-06-14T07:56:05;98154.63;;;19.76;47.96
59106;BME280;44891;50.204;8.132;2023-06-14T08:00:07;98148.28;;;19.86;47.74
59106;BME280;44891;50.204;8.132;2023-06-14T08:04:15;98161.72;;;19.67;47.14
59106;BME280;44891;50.204;8.132;2023-06-14T08:08:18;98162.69;;;19.85;46.53
59106;BME280;44891;50.204;8.132;2023-06-14T08:12:20;98165.81;;;20.00;45.05
59106;BME280;44891;50.204;8.132;2023-06-14T08:16:23;98166.84;;;19.77;44.76
59106;BME280;44891;50.204;8.132;2023-06-14T08:20:24;98167.19;;;19.62;44.90
59106;BME280;44891;50.204;8.132;2023-06-14T08:24:27;98169.56;;;19.99;44.64
59106;BME280;44891;50.204;8.132;2023-06-14T08:28:29;98163.53;;;20.07;46.06
59106;BME280;44891;50.204;8.132;2023-06-14T08:32:31;98168.94;;;20.38;45.59
59106;BME280;44891;50.204;8.132;2023-06-14T08:36:33;98156.88;;;20.19;45.49
59106;BME280;44891;50.204;8.132;2023-06-14T08:40:37;98162.66;;;20.34;44.24
59106;BME280;44891;50.204;8.132;2023-06-14T08:44:39;98166.38;;;20.33;43.03
59106;BME280;44891;50.204;8.132;2023-06-14T08:48:41;98164.28;;;20.44;42.88
59106;BME280;44891;50.204;8.132;2023-06-14T08:52:44;98157.63;;;20.55;44.79
59106;BME280;44891;50.204;8.132;2023-06-14T08:56:52;98171.94;;;20.59;45.13
59106;BME280;44891;50.204;8.132;2023-06-14T09:00:57;98163.28;;;20.40;43.81
59106;BME280;44891;50.204;8.132;2023-06-14T09:05:00;98176.75;;;20.49;44.03
59106;BME280;44891;50.204;8.132;2023-06-14T09:09:02;98172.88;;;20.41;44.67
59106;BME280;44891;50.204;8.132;2023-06-14T09:13:06;98167.25;;;20.65;44.21
59106;BME280;44891;50.204;8.132;2023-06-14T09:17:08;98192.38;;;20.64;44.85
59106;BME280;44891;50.204;8.132;2023-06-14T09:21:10;98180.03;;;20.77;44.12
59106;BME280;44891;50.204;8.132;2023-06-14T09:25:12;98183.16;;;20.70;43.01
59106;BME280;44891;50.204;8.132;2023-06-14T09:29:17;98188.94;;;20.95;43.66
59106;BME280;44891;50.204;8.132;2023-06-14T09:33:19;98186.53;;;21.15;43.60
59106;BME280;44891;50.204;8.132;2023-06-14T09:37:28;98188.22;;;21.11;43.51
59106;BME280;44891;50.204;8.132;2023-06-14T09:41:31;98190.31;;;21.14;42.57
59106;BME280;44891;50.204;8.132;2023-06-14T09:45:35;98198.31;;;20.83;41.61
59106;BME280;44891;50.204;8.132;2023-06-14T09:49:36;98206.06;;;20.94;41.61
59106;BME280;44891;50.204;8.132;2023-06-14T09:53:38;98205.88;;;20.90;41.50
59106;BME280;44891;50.204;8.132;2023-06-14T09:57:41;98213.25;;;21.15;41.81
59106;BME280;44891;50.204;8.132;2023-06-14T10:01:45;98203.94;;;21.44;41.93
59106;BME280;44891;50.204;8.132;2023-06-14T10:05:47;98204.16;;;21.56;41.41
59106;BME280;44891;50.204;8.132;2023-06-14T10:09:52;98217.09;;;21.71;40.80
59106;BME280;44891;50.204;8.132;2023-06-14T10:13:54;98210.94;;;21.62;40.54
59106;BME280;44891;50.204;8.132;2023-06-14T10:17:59;98197.91;;;21.69;41.18
59106;BME280;44891;50.204;8.132;2023-06-14T10:22:04;98196.53;;;21.81;40.16
59106;BME280;44891;50.204;8.132;2023-06-14T10:26:08;98195.88;;;21.75;40.88
59106;BME280;44891;50.204;8.132;2023-06-14T10:30:18;98190.03;;;21.64;41.78
59106;BME280;44891;50.204;8.132;2023-06-14T10:34:28;98201.22;;;21.66;41.61
59106;BME280;44891;50.204;8.132;2023-06-14T10:38:30;98188.59;;;21.58;40.24
59106;BME280;44891;50.204;8.132;2023-06-14T10:42:32;98199.66;;;21.83;40.89
59106;BME280;44891;50.204;8.132;2023-06-14T10:46:34;98196.25;;;22.17;41.17
59106;BME280;44891;50.204;8.132;2023-06-14T10:50:37;98203.81;;;22.23;39.65
59106;BME280;44891;50.204;8.132;2023-06-14T10:59:06;98204.56;;;22.93;37.88
59106;BME280;44891;50.204;8.132;2023-06-14T11:07:34;98203.72;;;23.10;38.00
59106;BME280;44891;50.204;8.132;2023-06-14T11:11:43;98216.38;;;22.75;39.19
59106;BME280;44891;50.204;8.132;2023-06-14T11:15:45;98206.66;;;22.53;39.49
59106;BME280;44891;50.204;8.132;2023-06-14T11:19:48;98201.09;;;22.75;39.12
59106;BME280;44891;50.204;8.132;2023-06-14T11:23:51;98209.63;;;22.69;38.98
59106;BME280;44891;50.204;8.132;2023-06-14T11:27:55;98214.38;;;22.55;39.04
59106;BME280;44891;50.204;8.132;2023-06-14T11:31:57;98207.53;;;22.05;39.81
59106;BME280;44891;50.204;8.132;2023-06-14T11:36:01;98210.91;;;22.71;38.58
59106;BME280;44891;50.204;8.132;2023-06-14T11:40:05;98201.88;;;23.02;37.19
59106;BME280;44891;50.204;8.132;2023-06-14T11:44:08;98204.84;;;23.47;35.87
59106;BME280;44891;50.204;8.132;2023-06-14T11:48:10;98196.09;;;23.29;36.07
59106;BME280;44891;50.204;8.132;2023-06-14T11:52:12;98201.22;;;23.43;36.75
59106;BME280;44891;50.204;8.132;2023-06-14T11:56:15;98195.50;;;23.62;36.58
59106;BME280;44891;50.204;8.132;2023-06-14T12:00:17;98203.94;;;23.34;36.44
59106;BME280;44891;50.204;8.132;2023-06-14T12:04:24;98190.88;;;23.33;36.42
59106;BME280;44891;50.204;8.132;2023-06-14T12:08:31;98182.56;;;23.55;36.25
59106;BME280;44891;50.204;8.132;2023-06-14T12:12:40;98189.50;;;23.56;36.65
59106;BME280;44891;50.204;8.132;2023-06-14T12:16:42;98184.00;;;23.82;36.09
59106;BME280;44891;50.204;8.132;2023-06-14T12:20:47;98157.34;;;23.86;36.17
59106;BME280;44891;50.204;8.132;2023-06-14T12:24:50;98184.41;;;24.56;34.48
59106;BME280;44891;50.204;8.132;2023-06-14T12:28:54;98183.91;;;24.75;34.11
59106;BME280;44891;50.204;8.132;2023-06-14T12:32:58;98176.16;;;24.61;34.76
59106;BME280;44891;50.204;8.132;2023-06-14T12:37:01;98171.25;;;24.42;34.97
59106;BME280;44891;50.204;8.132;2023-06-14T12:41:04;98168.03;;;24.82;34.71
59106;BME280;44891;50.204;8.132;2023-06-14T12:45:08;98171.28;;;24.87;34.74
59106;BME280;44891;50.204;8.132;2023-06-14T12:49:10;98198.50;;;24.32;35.74
59106;BME280;44891;50.204;8.132;2023-06-14T12:53:12;98187.91;;;24.56;35.42
59106;BME280;44891;50.204;8.132;2023-06-14T12:57:14;98188.28;;;24.79;35.13
59106;BME280;44891;50.204;8.132;2023-06-14T13:01:17;98182.25;;;24.70;35.24
59106;BME280;44891;50.204;8.132;2023-06-14T13:05:19;98192.13;;;24.90;35.43
59106;BME280;44891;50.204;8.132;2023-06-14T13:09:21;98193.91;;;24.32;36.35
59106;BME280;44891;50.204;8.132;2023-06-14T13:13:23;98182.25;;;24.49;36.16
59106;BME280;44891;50.204;8.132;2023-06-14T13:17:26;98183.34;;;25.14;35.63
59106;BME280;44891;50.204;8.132;2023-06-14T13:21:28;98174.50;;;25.14;33.94
59106;BME280;44891;50.204;8.132;2023-06-14T13:25:30;98182.59;;;24.81;34.66
59106;BME280;44891;50.204;8.132;2023-06-14T13:29:31;98170.41;;;24.83;34.52
59106;BME280;44891;50.204;8.132;2023-06-14T13:33:37;98181.56;;;24.73;34.96
59106;BME280;44891;50.204;8.132;2023-06-14T13:37:39;98189.47;;;24.15;34.98
59106;BME280;44891;50.204;8.132;2023-06-14T13:41:41;98186.50;;;23.87;35.37
59106;BME280;44891;50.204;8.132;2023-06-14T13:45:43;98188.03;;;24.18;36.51
59106;BME280;44891;50.204;8.132;2023-06-14T13:49:46;98190.91;;;24.13;36.27
59106;BME280;44891;50.204;8.132;2023-06-14T13:53:48;98191.53;;;24.10;36.47
59106;BME280;44891;50.204;8.132;2023-06-14T13:57:51;98181.66;;;24.23;35.66
59106;BME280;44891;50.204;8.132;2023-06-14T14:01:53;98174.88;;;24.79;35.04
59106;BME280;44891;50.204;8.132;2023-06-14T14:05:56;98171.47;;;25.15;34.75
59106;BME280;44891;50.204;8.132;2023-06-14T14:09:58;98174.97;;;24.37;34.98
59106;BME280;44891;50.204;8.132;2023-06-14T14:14:00;98170.97;;;24.44;34.13
59106;BME280;44891;50.204;8.132;2023-06-14T14:18:02;98167.59;;;24.80;34.34
59106;BME280;44891;50.204;8.132;2023-06-14T14:22:05;98169.34;;;25.21;34.26
59106;BME280;44891;50.204;8.132;2023-06-14T14:26:07;98166.97;;;25.81;33.05
59106;BME280;44891;50.204;8.132;2023-06-14T14:30:09;98172.47;;;25.47;34.22
59106;BME280;44891;50.204;8.132;2023-06-14T14:34:11;98185.34;;;25.05;35.07
59106;BME280;44891;50.204;8.132;2023-06-14T14:38:15;98187.38;;;24.42;36.06
59106;BME280;44891;50.204;8.132;2023-06-14T14:42:17;98176.38;;;23.93;36.65
59106;BME280;44891;50.204;8.132;2023-06-14T14:46:20;98180.69;;;23.85;37.30
59106;BME280;44891;50.204;8.132;2023-06-14T14:50:22;98186.91;;;23.77;36.87
59106;BME280;44891;50.204;8.132;2023-06-14T14:54:25;98180.38;;;23.87;37.54
59106;BME280;44891;50.204;8.132;2023-06-14T14:58:29;98181.84;;;24.59;37.13
59106;BME280;44891;50.204;8.132;2023-06-14T15:02:31;98180.56;;;24.45;35.80
59106;BME280;44891;50.204;8.132;2023-06-14T15:06:33;98178.00;;;24.27;35.50
59106;BME280;44891;50.204;8.132;2023-06-14T15:10:37;98177.47;;;24.55;35.27
59106;BME280;44891;50.204;8.132;2023-06-14T15:14:41;98176.63;;;24.63;34.92
59106;BME280;44891;50.204;8.132;2023-06-14T15:18:42;98176.88;;;24.82;33.60
59106;BME280;44891;50.204;8.132;2023-06-14T15:22:44;98171.03;;;25.26;33.91
59106;BME280;44891;50.204;8.132;2023-06-14T15:26:47;98168.56;;;25.20;33.94
59106;BME280;44891;50.204;8.132;2023-06-14T15:30:49;98175.63;;;25.25;33.17
59106;BME280;44891;50.204;8.132;2023-06-14T15:34:51;98172.84;;;25.09;34.10
59106;BME280;44891;50.204;8.132;2023-06-14T15:38:53;98177.31;;;25.42;33.11
59106;BME280;44891;50.204;8.132;2023-06-14T15:42:56;98164.31;;;25.56;33.53
59106;BME280;44891;50.204;8.132;2023-06-14T15:46:58;98163.31;;;26.13;32.62
59106;BME280;44891;50.204;8.132;2023-06-14T15:50:59;98170.00;;;25.91;33.58
59106;BME280;44891;50.204;8.132;2023-06-14T15:55:01;98169.03;;;25.10;34.16
59106;BME280;44891;50.204;8.132;2023-06-14T15:59:05;98173.88;;;24.51;35.95
59106;BME280;44891;50.204;8.132;2023-06-14T16:03:07;98164.47;;;24.03;36.50
59106;BME280;44891;50.204;8.132;2023-06-14T16:07:09;98160.88;;;24.20;35.30
59106;BME280;44891;50.204;8.132;2023-06-14T16:11:13;98153.78;;;24.36;36.18
59106;BME280;44891;50.204;8.132;2023-06-14T16:15:18;98145.69;;;24.24;36.29
59106;BME280;44891;50.204;8.132;2023-06-14T16:19:20;98159.16;;;24.57;36.01
59106;BME280;44891;50.204;8.132;2023-06-14T16:23:22;98156.31;;;24.53;36.04
59106;BME280;44891;50.204;8.132;2023-06-14T16:27:24;98158.91;;;24.62;35.76
59106;BME280;44891;50.204;8.132;2023-06-14T16:31:27;98159.09;;;24.24;35.96
59106;BME280;44891;50.204;8.132;2023-06-14T16:35:29;98160.00;;;23.65;36.67
59106;BME280;44891;50.204;8.132;2023-06-14T16:39:32;98163.91;;;23.38;37.51
59106;BME280;44891;50.204;8.132;2023-06-14T16:43:33;98158.34;;;23.43;37.65
59106;BME280;44891;50.204;8.132;2023-06-14T16:47:38;98160.06;;;23.48;37.40
59106;BME280;44891;50.204;8.132;2023-06-14T16:51:39;98159.94;;;23.74;37.35
59106;BME280;44891;50.204;8.132;2023-06-14T16:55:41;98161.78;;;23.82;37.09
59106;BME280;44891;50.204;8.132;2023-06-14T16:59:44;98161.44;;;23.83;37.51
59106;BME280;44891;50.204;8.132;2023-06-14T17:03:47;98169.38;;;24.01;37.31
59106;BME280;44891;50.204;8.132;2023-06-14T17:07:49;98182.19;;;23.95;37.30
59106;BME280;44891;50.204;8.132;2023-06-14T17:11:51;98180.28;;;23.96;36.82
59106;BME280;44891;50.204;8.132;2023-06-14T17:15:53;98188.66;;;23.73;36.62
59106;BME280;44891;50.204;8.132;2023-06-14T17:19:56;98189.28;;;23.41;37.09
59106;BME280;44891;50.204;8.132;2023-06-14T17:23:58;98192.28;;;23.30;37.14
59106;BME280;44891;50.204;8.132;2023-06-14T17:28:00;98188.72;;;23.26;37.41
59106;BME280;44891;50.204;8.132;2023-06-14T17:32:04;98192.78;;;23.32;37.51
59106;BME280;44891;50.204;8.132;2023-06-14T17:36:07;98192.44;;;23.34;37.86
59106;BME280;44891;50.204;8.132;2023-06-14T17:40:10;98194.19;;;23.30;37.49
59106;BME280;44891;50.204;8.132;2023-06-14T17:44:12;98199.88;;;23.28;37.47
59106;BME280;44891;50.204;8.132;2023-06-14T17:48:14;98204.31;;;23.24;37.93
59106;BME280;44891;50.204;8.132;2023-06-14T17:52:17;98214.97;;;23.42;37.89
59106;BME280;44891;50.204;8.132;2023-06-14T17:56:19;98204.28;;;23.33;37.64
59106;BME280;44891;50.204;8.132;2023-06-14T18:00:21;98212.53;;;23.19;38.23
59106;BME280;44891;50.204;8.132;2023-06-14T18:04:23;98219.50;;;23.03;37.85
59106;BME280;44891;50.204;8.132;2023-06-14T18:08:27;98209.94;;;22.76;38.67
59106;BME280;44891;50.204;8.132;2023-06-14T18:12:29;98214.84;;;22.65;38.68
59106;BME280;44891;50.204;8.132;2023-06-14T18:16:31;98215.16;;;22.55;38.96
59106;BME280;44891;50.204;8.132;2023-06-14T18:20:33;98221.63;;;22.45;39.29
59106;BME280;44891;50.204;8.132;2023-06-14T18:24:36;98228.38;;;22.34;39.54
59106;BME280;44891;50.204;8.132;2023-06-14T18:28:38;98232.16;;;22.24;39.73
59106;BME280;44891;50.204;8.132;2023-06-14T18:32:40;98230.22;;;21.99;40.45
59106;BME280;44891;50.204;8.132;2023-06-14T18:36:47;98238.50;;;21.80;40.49
59106;BME280;44891;50.204;8.132;2023-06-14T18:40:50;98241.00;;;21.77;40.81
59106;BME280;44891;50.204;8.132;2023-06-14T18:44:52;98235.91;;;21.58;41.31
59106;BME280;44891;50.204;8.132;2023-06-14T18:48:54;98243.13;;;21.57;41.32
59106;BME280;44891;50.204;8.132;2023-06-14T18:52:56;98242.00;;;21.41;41.16
59106;BME280;44891;50.204;8.132;2023-06-14T18:56:59;98241.78;;;21.29;42.08
59106;BME280;44891;50.204;8.132;2023-06-14T19:01:01;98239.47;;;21.13;42.28
59106;BME280;44891;50.204;8.132;2023-06-14T19:05:03;98236.25;;;21.03;42.71
59106;BME280;44891;50.204;8.132;2023-06-14T19:09:05;98248.00;;;20.93;43.07
59106;BME280;44891;50.204;8.132;2023-06-14T19:13:08;98247.06;;;20.53;44.02
59106;BME280;44891;50.204;8.132;2023-06-14T19:17:11;98245.41;;;20.43;43.93
59106;BME280;44891;50.204;8.132;2023-06-14T19:21:13;98257.63;;;20.44;44.00
59106;BME280;44891;50.204;8.132;2023-06-14T19:25:15;98257.69;;;20.30;43.29
59106;BME280;44891;50.204;8.132;2023-06-14T19:29:18;98265.47;;;20.27;43.13
59106;BME280;44891;50.204;8.132;2023-06-14T19:33:20;98264.16;;;20.02;43.70
59106;BME280;44891;50.204;8.132;2023-06-14T19:37:22;98270.06;;;20.13;43.36
59106;BME280;44891;50.204;8.132;2023-06-14T19:41:24;98268.16;;;20.13;43.50
59106;BME280;44891;50.204;8.132;2023-06-14T19:45:29;98273.13;;;20.06;43.74
59106;BME280;44891;50.204;8.132;2023-06-14T19:49:31;98284.50;;;19.98;44.02
59106;BME280;44891;50.204;8.132;2023-06-14T19:53:33;98301.19;;;19.90;44.53
59106;BME280;44891;50.204;8.132;2023-06-14T19:57:35;98302.75;;;19.91;44.37
59106;BME280;44891;50.204;8.132;2023-06-14T20:01:38;98306.69;;;19.79;44.51
59106;BME280;44891;50.204;8.132;2023-06-14T20:05:40;98311.16;;;19.70;44.61
59106;BME280;44891;50.204;8.132;2023-06-14T20:09:42;98312.09;;;19.61;44.96
59106;BME280;44891;50.204;8.132;2023-06-14T20:13:44;98318.09;;;19.52;45.07
59106;BME280;44891;50.204;8.132;2023-06-14T20:17:47;98313.75;;;19.43;45.53
59106;BME280;44891;50.204;8.132;2023-06-14T20:21:49;98323.69;;;19.37;45.94
59106;BME280;44891;50.204;8.132;2023-06-14T20:25:51;98324.09;;;19.12;47.01
59106;BME280;44891;50.204;8.132;2023-06-14T20:29:53;98325.63;;;18.99;47.32
59106;BME280;44891;50.204;8.132;2023-06-14T20:33:56;98336.41;;;19.08;47.17
59106;BME280;44891;50.204;8.132;2023-06-14T20:37:58;98331.56;;;18.96;47.52
59106;BME280;44891;50.204;8.132;2023-06-14T20:42:00;98330.69;;;18.82;47.53
59106;BME280;44891;50.204;8.132;2023-06-14T20:46:02;98332.97;;;18.88;47.67
59106;BME280;44891;50.204;8.132;2023-06-14T20:50:09;98326.88;;;18.88;47.47
59106;BME280;44891;50.204;8.132;2023-06-14T20:54:12;98330.47;;;18.78;48.19
59106;BME280;44891;50.204;8.132;2023-06-14T20:58:14;98331.88;;;18.52;50.24
59106;BME280;44891;50.204;8.132;2023-06-14T21:02:17;98334.31;;;18.48;49.77
59106;BME280;44891;50.204;8.132;2023-06-14T21:06:20;98334.66;;;18.41;50.30
59106;BME280;44891;50.204;8.132;2023-06-14T21:10:22;98339.53;;;18.34;50.46
59106;BME280;44891;50.204;8.132;2023-06-14T21:14:24;98341.75;;;18.27;50.39
59106;BME280;44891;50.204;8.132;2023-06-14T21:18:26;98338.03;;;18.28;51.29
59106;BME280;44891;50.204;8.132;2023-06-14T21:22:29;98337.78;;;18.06;51.93
59106;BME280;44891;50.204;8.132;2023-06-14T21:26:31;98344.44;;;18.03;52.53
59106;BME280;44891;50.204;8.132;2023-06-14T21:30:34;98345.59;;;17.97;53.07
59106;BME280;44891;50.204;8.132;2023-06-14T21:34:37;98346.88;;;17.71;53.71